Lawrenceville, Illinois
Current Conditions -  °F | °C
As of 9:53 AM on Monday 26 Jan 2015 (Local Time) from KLWV Reporting Station
Overcast Overcast  
Wind Chill: 22°   Ceiling: 1700
Heat Index: 30°   Visibility: 10mi
Dew Point: 24°   Wind: 8mph
Humidity: 79%   Direction: 290°WNW
Pressure: 30.03"   Gusts: NA
Location:  38.73°N, 87.68°W
Report Text: KLWV 261553Z AUTO 29007KT 10SM OVC017 M01/M04 A3003 RMK AO2 SLP172 T10111044
Loading
Personal Weather Stations






























Interactive Weather Map New forecast layout! Learn more

10-Day Weather Forecast

Advertisements
Track Severe Weather on mobile